sensor_id;sensor_type;location;lat;lon;timestamp;pressure;altitude;pressure_sealevel;temperature;humidity
4449;BME280;2237;51.870;6.160;2022-08-21T00:01:35;101559.38;;;20.35;58.63
4449;BME280;2237;51.870;6.160;2022-08-21T00:04:09;101565.47;;;20.37;58.91
4449;BME280;2237;51.870;6.160;2022-08-21T00:06:37;101560.41;;;20.32;58.63
4449;BME280;2237;51.870;6.160;2022-08-21T00:09:06;101565.06;;;20.27;59.06
4449;BME280;2237;51.870;6.160;2022-08-21T00:11:35;101572.25;;;20.25;58.83
4449;BME280;2237;51.870;6.160;2022-08-21T00:14:04;101571.34;;;20.24;59.00
4449;BME280;2237;51.870;6.160;2022-08-21T00:16:30;101564.56;;;20.19;58.98
4449;BME280;2237;51.870;6.160;2022-08-21T00:18:57;101558.72;;;20.12;59.05
4449;BME280;2237;51.870;6.160;2022-08-21T00:21:24;101566.81;;;20.09;59.44
4449;BME280;2237;51.870;6.160;2022-08-21T00:23:51;101562.53;;;20.07;59.38
4449;BME280;2237;51.870;6.160;2022-08-21T00:26:18;101565.28;;;20.05;59.53
4449;BME280;2237;51.870;6.160;2022-08-21T00:28:44;101560.97;;;20.03;59.63
4449;BME280;2237;51.870;6.160;2022-08-21T00:31:12;101560.97;;;20.03;59.49
4449;BME280;2237;51.870;6.160;2022-08-21T00:33:38;101553.19;;;20.00;59.91
4449;BME280;2237;51.870;6.160;2022-08-21T00:36:05;101550.69;;;19.97;59.87
4449;BME280;2237;51.870;6.160;2022-08-21T00:38:31;101553.59;;;19.92;59.64
4449;BME280;2237;51.870;6.160;2022-08-21T00:41:00;101552.00;;;19.88;60.07
4449;BME280;2237;51.870;6.160;2022-08-21T00:43:47;101544.31;;;19.84;60.12
4449;BME280;2237;51.870;6.160;2022-08-21T00:46:13;101552.25;;;19.84;60.38
4449;BME280;2237;51.870;6.160;2022-08-21T00:48:39;101549.59;;;19.84;60.23
4449;BME280;2237;51.870;6.160;2022-08-21T00:51:10;101550.53;;;19.83;60.11
4449;BME280;2237;51.870;6.160;2022-08-21T00:53:43;101549.75;;;19.81;60.06
4449;BME280;2237;51.870;6.160;2022-08-21T00:56:19;101561.41;;;19.77;60.38
4449;BME280;2237;51.870;6.160;2022-08-21T00:58:47;101551.94;;;19.72;60.13
4449;BME280;2237;51.870;6.160;2022-08-21T01:01:20;101549.44;;;19.69;60.36
4449;BME280;2237;51.870;6.160;2022-08-21T01:03:47;101550.34;;;19.68;60.61
4449;BME280;2237;51.870;6.160;2022-08-21T01:06:15;101548.72;;;19.66;60.48
4449;BME280;2237;51.870;6.160;2022-08-21T01:08:43;101542.72;;;19.62;60.96
4449;BME280;2237;51.870;6.160;2022-08-21T01:11:14;101541.22;;;19.57;61.13
4449;BME280;2237;51.870;6.160;2022-08-21T01:13:41;101545.66;;;19.56;61.01
4449;BME280;2237;51.870;6.160;2022-08-21T01:16:14;101550.16;;;19.54;61.18
4449;BME280;2237;51.870;6.160;2022-08-21T01:18:43;101552.94;;;19.51;61.23
4449;BME280;2237;51.870;6.160;2022-08-21T01:21:14;101553.88;;;19.50;61.54
4449;BME280;2237;51.870;6.160;2022-08-21T01:23:43;101549.69;;;19.46;61.72
4449;BME280;2237;51.870;6.160;2022-08-21T01:26:12;101553.31;;;19.44;61.68
4449;BME280;2237;51.870;6.160;2022-08-21T01:28:51;101553.56;;;19.38;62.16
4449;BME280;2237;51.870;6.160;2022-08-21T01:31:21;101549.31;;;19.35;62.05
4449;BME280;2237;51.870;6.160;2022-08-21T01:33:52;101550.31;;;19.33;62.23
4449;BME280;2237;51.870;6.160;2022-08-21T01:36:19;101554.88;;;19.29;62.28
4449;BME280;2237;51.870;6.160;2022-08-21T01:38:45;101556.69;;;19.27;62.41
4449;BME280;2237;51.870;6.160;2022-08-21T01:41:14;101561.16;;;19.27;62.61
4449;BME280;2237;51.870;6.160;2022-08-21T01:43:42;101561.22;;;19.25;62.67
4449;BME280;2237;51.870;6.160;2022-08-21T01:46:09;101552.50;;;19.23;62.67
4449;BME280;2237;51.870;6.160;2022-08-21T01:48:36;101547.38;;;19.20;62.77
4449;BME280;2237;51.870;6.160;2022-08-21T01:51:04;101545.72;;;19.17;62.92
4449;BME280;2237;51.870;6.160;2022-08-21T01:53:31;101548.56;;;19.13;62.97
4449;BME280;2237;51.870;6.160;2022-08-21T01:56:00;101545.16;;;19.11;63.13
4449;BME280;2237;51.870;6.160;2022-08-21T01:58:26;101548.84;;;19.07;63.28
4449;BME280;2237;51.870;6.160;2022-08-21T02:00:53;101542.94;;;19.02;63.55
4449;BME280;2237;51.870;6.160;2022-08-21T02:03:20;101546.50;;;19.01;63.38
4449;BME280;2237;51.870;6.160;2022-08-21T02:06:05;101548.44;;;18.97;63.67
4449;BME280;2237;51.870;6.160;2022-08-21T02:08:33;101551.22;;;18.94;63.66
4449;BME280;2237;51.870;6.160;2022-08-21T02:11:00;101547.84;;;18.91;63.89
4449;BME280;2237;51.870;6.160;2022-08-21T02:13:26;101537.41;;;18.88;64.19
4449;BME280;2237;51.870;6.160;2022-08-21T02:15:53;101545.34;;;18.88;64.04
4449;BME280;2237;51.870;6.160;2022-08-21T02:18:19;101543.75;;;18.84;64.33
4449;BME280;2237;51.870;6.160;2022-08-21T02:20:47;101539.47;;;18.81;64.31
4449;BME280;2237;51.870;6.160;2022-08-21T02:23:21;101531.00;;;18.75;64.58
4449;BME280;2237;51.870;6.160;2022-08-21T02:26:00;101536.41;;;18.72;64.92
4449;BME280;2237;51.870;6.160;2022-08-21T02:28:28;101532.28;;;18.66;64.97
4449;BME280;2237;51.870;6.160;2022-08-21T02:30:55;101537.72;;;18.61;65.18
4449;BME280;2237;51.870;6.160;2022-08-21T02:33:23;101538.72;;;18.59;65.22
4449;BME280;2237;51.870;6.160;2022-08-21T02:35:50;101535.34;;;18.55;65.26
4449;BME280;2237;51.870;6.160;2022-08-21T02:38:20;101528.53;;;18.51;65.41
4449;BME280;2237;51.870;6.160;2022-08-21T02:40:48;101526.66;;;18.53;65.37
4449;BME280;2237;51.870;6.160;2022-08-21T02:43:17;101532.06;;;18.50;65.27
4449;BME280;2237;51.870;6.160;2022-08-21T02:45:45;101521.75;;;18.44;65.84
4449;BME280;2237;51.870;6.160;2022-08-21T02:48:16;101516.56;;;18.43;65.67
4449;BME280;2237;51.870;6.160;2022-08-21T02:50:45;101528.94;;;18.41;66.05
4449;BME280;2237;51.870;6.160;2022-08-21T02:53:13;101518.47;;;18.39;66.14
4449;BME280;2237;51.870;6.160;2022-08-21T02:55:44;101521.16;;;18.38;66.28
4449;BME280;2237;51.870;6.160;2022-08-21T02:58:11;101521.28;;;18.35;66.52
4449;BME280;2237;51.870;6.160;2022-08-21T03:00:39;101527.44;;;18.35;66.43
4449;BME280;2237;51.870;6.160;2022-08-21T03:03:06;101523.16;;;18.33;66.71
4449;BME280;2237;51.870;6.160;2022-08-21T03:05:34;101521.63;;;18.27;66.76
4449;BME280;2237;51.870;6.160;2022-08-21T03:08:02;101520.84;;;18.25;67.05
4449;BME280;2237;51.870;6.160;2022-08-21T03:10:29;101513.78;;;18.26;67.00
4449;BME280;2237;51.870;6.160;2022-08-21T03:12:57;101506.97;;;18.20;67.19
4449;BME280;2237;51.870;6.160;2022-08-21T03:15:23;101506.16;;;18.20;67.13
4449;BME280;2237;51.870;6.160;2022-08-21T03:17:50;101499.19;;;18.17;67.41
4449;BME280;2237;51.870;6.160;2022-08-21T03:20:19;101497.44;;;18.18;67.18
4449;BME280;2237;51.870;6.160;2022-08-21T03:22:49;101503.66;;;18.17;66.82
4449;BME280;2237;51.870;6.160;2022-08-21T03:25:22;101511.59;;;18.15;67.28
4449;BME280;2237;51.870;6.160;2022-08-21T03:28:08;101502.09;;;18.11;67.51
4449;BME280;2237;51.870;6.160;2022-08-21T03:30:46;101506.81;;;18.04;67.50
4449;BME280;2237;51.870;6.160;2022-08-21T03:33:14;101506.84;;;18.03;67.92
4449;BME280;2237;51.870;6.160;2022-08-21T03:35:43;101508.69;;;18.01;67.81
4449;BME280;2237;51.870;6.160;2022-08-21T03:38:10;101507.91;;;17.99;68.27
4449;BME280;2237;51.870;6.160;2022-08-21T03:40:39;101506.41;;;17.93;68.03
4449;BME280;2237;51.870;6.160;2022-08-21T03:43:05;101506.66;;;17.87;68.21
4449;BME280;2237;51.870;6.160;2022-08-21T03:45:35;101506.81;;;17.83;68.68
4449;BME280;2237;51.870;6.160;2022-08-21T03:48:02;101505.13;;;17.82;68.66
4449;BME280;2237;51.870;6.160;2022-08-21T03:50:30;101505.13;;;17.82;68.86
4449;BME280;2237;51.870;6.160;2022-08-21T03:52:58;101515.66;;;17.82;68.80
4449;BME280;2237;51.870;6.160;2022-08-21T03:55:25;101507.75;;;17.82;68.82
4449;BME280;2237;51.870;6.160;2022-08-21T03:57:52;101512.16;;;17.81;68.85
4449;BME280;2237;51.870;6.160;2022-08-21T04:00:19;101510.56;;;17.77;68.77
4449;BME280;2237;51.870;6.160;2022-08-21T04:02:45;101518.22;;;17.62;68.83
4449;BME280;2237;51.870;6.160;2022-08-21T04:05:13;101518.72;;;17.49;69.32
4449;BME280;2237;51.870;6.160;2022-08-21T04:07:40;101515.34;;;17.46;69.56
4449;BME280;2237;51.870;6.160;2022-08-21T04:10:07;101514.47;;;17.45;70.02
4449;BME280;2237;51.870;6.160;2022-08-21T04:12:33;101504.69;;;17.49;70.00
4449;BME280;2237;51.870;6.160;2022-08-21T04:15:00;101515.00;;;17.55;70.05
4449;BME280;2237;51.870;6.160;2022-08-21T04:17:28;101513.13;;;17.59;70.00
4449;BME280;2237;51.870;6.160;2022-08-21T04:19:54;101507.84;;;17.59;69.73
4449;BME280;2237;51.870;6.160;2022-08-21T04:22:21;101512.25;;;17.58;69.84
4449;BME280;2237;51.870;6.160;2022-08-21T04:24:47;101508.69;;;17.59;69.54
4449;BME280;2237;51.870;6.160;2022-08-21T04:27:14;101501.75;;;17.57;69.57
4449;BME280;2237;51.870;6.160;2022-08-21T04:29:40;101499.94;;;17.59;69.56
4449;BME280;2237;51.870;6.160;2022-08-21T04:32:06;101511.38;;;17.58;69.58
4449;BME280;2237;51.870;6.160;2022-08-21T04:34:33;101502.59;;;17.59;69.52
4449;BME280;2237;51.870;6.160;2022-08-21T04:36:59;101515.66;;;17.60;69.62
4449;BME280;2237;51.870;6.160;2022-08-21T04:39:26;101509.53;;;17.60;69.77
4449;BME280;2237;51.870;6.160;2022-08-21T04:41:55;101507.84;;;17.59;69.69
4449;BME280;2237;51.870;6.160;2022-08-21T04:44:21;101507.84;;;17.59;69.59
4449;BME280;2237;51.870;6.160;2022-08-21T04:46:48;101499.94;;;17.59;69.59
4449;BME280;2237;51.870;6.160;2022-08-21T04:49:14;101512.19;;;17.60;69.69
4449;BME280;2237;51.870;6.160;2022-08-21T04:51:41;101513.13;;;17.59;70.04
4449;BME280;2237;51.870;6.160;2022-08-21T04:54:14;101505.13;;;17.60;70.50
4449;BME280;2237;51.870;6.160;2022-08-21T04:59:19;101497.59;;;17.73;71.21
4449;BME280;2237;51.870;6.160;2022-08-21T05:01:47;101496.53;;;17.77;71.03
4449;BME280;2237;51.870;6.160;2022-08-21T05:04:17;101505.84;;;17.85;71.38
4449;BME280;2237;51.870;6.160;2022-08-21T05:06:45;101501.31;;;17.89;70.96
4449;BME280;2237;51.870;6.160;2022-08-21T05:09:15;101505.47;;;17.94;71.24
4449;BME280;2237;51.870;6.160;2022-08-21T05:11:42;101495.78;;;17.95;71.36
4449;BME280;2237;51.870;6.160;2022-08-21T05:14:10;101497.38;;;17.99;71.79
4449;BME280;2237;51.870;6.160;2022-08-21T05:16:38;101505.03;;;18.05;71.68
4449;BME280;2237;51.870;6.160;2022-08-21T05:19:05;101496.03;;;18.09;71.72
4449;BME280;2237;51.870;6.160;2022-08-21T05:21:37;101490.13;;;18.04;72.05
4449;BME280;2237;51.870;6.160;2022-08-21T05:24:03;101503.34;;;18.02;72.24
4449;BME280;2237;51.870;6.160;2022-08-21T05:26:30;101499.03;;;18.01;72.26
4449;BME280;2237;51.870;6.160;2022-08-21T05:28:57;101494.63;;;18.02;72.49
4449;BME280;2237;51.870;6.160;2022-08-21T05:31:24;101497.28;;;18.00;72.74
4449;BME280;2237;51.870;6.160;2022-08-21T05:33:50;101500.66;;;18.04;72.65
4449;BME280;2237;51.870;6.160;2022-08-21T05:36:18;101510.56;;;17.99;72.93
4449;BME280;2237;51.870;6.160;2022-08-21T05:38:44;101506.97;;;18.00;72.99
4449;BME280;2237;51.870;6.160;2022-08-21T05:41:11;101514.09;;;17.98;73.32
4449;BME280;2237;51.870;6.160;2022-08-21T05:43:37;101516.66;;;17.99;73.38
4449;BME280;2237;51.870;6.160;2022-08-21T05:46:06;101525.88;;;17.89;74.11
4449;BME280;2237;51.870;6.160;2022-08-21T05:48:33;101535.81;;;17.83;74.67
4449;BME280;2237;51.870;6.160;2022-08-21T05:51:09;101538.81;;;17.74;75.37
4449;BME280;2237;51.870;6.160;2022-08-21T05:53:37;101536.19;;;17.74;75.56
4449;BME280;2237;51.870;6.160;2022-08-21T05:56:04;101533.41;;;17.77;75.78
4449;BME280;2237;51.870;6.160;2022-08-21T05:58:32;101533.28;;;17.80;76.05
4449;BME280;2237;51.870;6.160;2022-08-21T06:01:00;101537.59;;;17.82;76.26
4449;BME280;2237;51.870;6.160;2022-08-21T06:03:33;101539.06;;;17.89;76.29
4449;BME280;2237;51.870;6.160;2022-08-21T06:06:01;101538.06;;;17.92;76.28
4449;BME280;2237;51.870;6.160;2022-08-21T06:08:28;101536.34;;;17.91;76.60
4449;BME280;2237;51.870;6.160;2022-08-21T06:10:57;101540.84;;;17.89;76.21
4449;BME280;2237;51.870;6.160;2022-08-21T06:13:24;101548.75;;;17.89;77.25
4449;BME280;2237;51.870;6.160;2022-08-21T06:16:21;101542.59;;;17.88;77.31
4449;BME280;2237;51.870;6.160;2022-08-21T06:18:48;101546.31;;;17.84;77.66
4449;BME280;2237;51.870;6.160;2022-08-21T06:21:15;101543.66;;;17.84;77.98
4449;BME280;2237;51.870;6.160;2022-08-21T06:23:42;101543.47;;;17.89;77.92
4449;BME280;2237;51.870;6.160;2022-08-21T06:26:11;101539.66;;;17.96;77.73
4449;BME280;2237;51.870;6.160;2022-08-21T06:28:39;101543.34;;;17.92;77.88
4449;BME280;2237;51.870;6.160;2022-08-21T06:31:27;101540.47;;;17.98;78.06
4449;BME280;2237;51.870;6.160;2022-08-21T06:33:54;101551.00;;;17.98;78.09
4449;BME280;2237;51.870;6.160;2022-08-21T06:36:21;101548.13;;;18.04;78.04
4449;BME280;2237;51.870;6.160;2022-08-21T06:38:47;101546.13;;;18.09;77.94
4449;BME280;2237;51.870;6.160;2022-08-21T06:41:17;101546.78;;;18.14;77.71
4449;BME280;2237;51.870;6.160;2022-08-21T06:43:49;101547.53;;;18.18;77.61
4449;BME280;2237;51.870;6.160;2022-08-21T06:46:16;101548.38;;;18.18;77.78
4449;BME280;2237;51.870;6.160;2022-08-21T06:48:43;101548.19;;;18.23;78.00
4449;BME280;2237;51.870;6.160;2022-08-21T06:51:09;101545.41;;;18.26;78.30
4449;BME280;2237;51.870;6.160;2022-08-21T06:53:35;101542.38;;;18.35;78.39
4449;BME280;2237;51.870;6.160;2022-08-21T06:56:03;101546.53;;;18.40;77.95
4449;BME280;2237;51.870;6.160;2022-08-21T06:58:30;101542.84;;;18.44;77.82
4449;BME280;2237;51.870;6.160;2022-08-21T07:00:57;101546.03;;;18.52;77.63
4449;BME280;2237;51.870;6.160;2022-08-21T07:03:36;101555.19;;;18.64;77.17
4449;BME280;2237;51.870;6.160;2022-08-21T07:06:03;101545.50;;;18.65;76.93
4449;BME280;2237;51.870;6.160;2022-08-21T07:08:30;101550.75;;;18.66;77.47
4449;BME280;2237;51.870;6.160;2022-08-21T07:10:59;101552.69;;;18.61;77.48
4449;BME280;2237;51.870;6.160;2022-08-21T07:13:27;101556.00;;;18.66;77.41
4449;BME280;2237;51.870;6.160;2022-08-21T07:15:54;101563.63;;;18.72;77.60
4449;BME280;2237;51.870;6.160;2022-08-21T07:18:20;101559.28;;;18.71;77.10
4449;BME280;2237;51.870;6.160;2022-08-21T07:20:47;101556.72;;;18.70;77.52
4449;BME280;2237;51.870;6.160;2022-08-21T07:23:23;101552.63;;;18.83;77.23
4449;BME280;2237;51.870;6.160;2022-08-21T07:25:51;101549.56;;;18.92;76.59
4449;BME280;2237;51.870;6.160;2022-08-21T07:28:17;101548.63;;;18.93;75.50
4449;BME280;2237;51.870;6.160;2022-08-21T07:30:45;101550.97;;;18.80;76.17
4449;BME280;2237;51.870;6.160;2022-08-21T07:33:12;101541.06;;;18.85;76.52
4449;BME280;2237;51.870;6.160;2022-08-21T07:35:38;101551.22;;;18.94;76.00
4449;BME280;2237;51.870;6.160;2022-08-21T07:38:05;101545.56;;;19.02;75.65
4449;BME280;2237;51.870;6.160;2022-08-21T07:40:32;101549.44;;;19.13;75.27
4449;BME280;2237;51.870;6.160;2022-08-21T07:42:58;101532.44;;;19.19;74.76
4449;BME280;2237;51.870;6.160;2022-08-21T07:45:25;101542.81;;;19.42;74.01
4449;BME280;2237;51.870;6.160;2022-08-21T07:47:52;101532.91;;;19.47;73.53
4449;BME280;2237;51.870;6.160;2022-08-21T07:50:23;101540.75;;;19.49;72.87
4449;BME280;2237;51.870;6.160;2022-08-21T07:52:50;101542.28;;;19.71;72.08
4449;BME280;2237;51.870;6.160;2022-08-21T07:55:22;101534.16;;;19.93;71.15
4449;BME280;2237;51.870;6.160;2022-08-21T07:57:49;101532.75;;;20.03;70.87
4449;BME280;2237;51.870;6.160;2022-08-21T08:00:19;101532.84;;;20.19;70.09
4449;BME280;2237;51.870;6.160;2022-08-21T08:02:49;101528.94;;;20.09;70.47
4449;BME280;2237;51.870;6.160;2022-08-21T08:05:18;101534.09;;;20.29;69.90
4449;BME280;2237;51.870;6.160;2022-08-21T08:07:45;101529.28;;;20.37;68.75
4449;BME280;2237;51.870;6.160;2022-08-21T08:10:12;101527.31;;;20.41;68.84
4449;BME280;2237;51.870;6.160;2022-08-21T08:12:40;101529.28;;;20.37;68.44
4449;BME280;2237;51.870;6.160;2022-08-21T08:15:10;101535.09;;;20.44;68.50
4449;BME280;2237;51.870;6.160;2022-08-21T08:17:37;101527.41;;;20.39;68.63
4449;BME280;2237;51.870;6.160;2022-08-21T08:20:05;101537.28;;;20.18;70.14
4449;BME280;2237;51.870;6.160;2022-08-21T16:11:50;101426.06;;;35.66;20.13
4449;BME280;2237;51.870;6.160;2022-08-21T16:14:17;101427.78;;;33.39;22.53
4449;BME280;2237;51.870;6.160;2022-08-21T16:16:44;101429.25;;;32.08;24.77
4449;BME280;2237;51.870;6.160;2022-08-21T16:19:11;101424.09;;;31.71;25.16
4449;BME280;2237;51.870;6.160;2022-08-21T16:21:39;101424.28;;;31.07;26.39
4449;BME280;2237;51.870;6.160;2022-08-21T16:24:05;101428.53;;;30.55;27.20
4449;BME280;2237;51.870;6.160;2022-08-21T16:26:32;101431.53;;;30.33;27.70
4449;BME280;2237;51.870;6.160;2022-08-21T16:29:00;101439.38;;;30.17;27.32
4449;BME280;2237;51.870;6.160;2022-08-21T16:31:26;101433.94;;;29.51;28.63
4449;BME280;2237;51.870;6.160;2022-08-21T16:33:54;101431.63;;;29.37;28.66
4449;BME280;2237;51.870;6.160;2022-08-21T16:36:24;101436.16;;;29.46;28.56
4449;BME280;2237;51.870;6.160;2022-08-21T16:38:55;101432.44;;;28.99;28.95
4449;BME280;2237;51.870;6.160;2022-08-21T16:41:23;101433.84;;;28.33;30.30
4449;BME280;2237;51.870;6.160;2022-08-21T16:43:52;101432.50;;;28.48;30.23
4449;BME280;2237;51.870;6.160;2022-08-21T16:46:20;101433.47;;;28.47;30.07
4449;BME280;2237;51.870;6.160;2022-08-21T16:48:47;101437.69;;;28.71;29.77
4449;BME280;2237;51.870;6.160;2022-08-21T16:51:15;101432.66;;;28.47;29.72
4449;BME280;2237;51.870;6.160;2022-08-21T16:53:42;101429.41;;;28.23;30.53
4449;BME280;2237;51.870;6.160;2022-08-21T16:56:11;101438.06;;;28.06;30.88
4449;BME280;2237;51.870;6.160;2022-08-21T16:58:41;101446.84;;;27.76;31.49
4449;BME280;2237;51.870;6.160;2022-08-21T17:01:10;101447.25;;;27.60;31.55
4449;BME280;2237;51.870;6.160;2022-08-21T17:03:39;101447.06;;;27.41;32.04
4449;BME280;2237;51.870;6.160;2022-08-21T17:06:07;101457.06;;;27.39;32.01
4449;BME280;2237;51.870;6.160;2022-08-21T17:08:35;101443.69;;;27.39;31.80
4449;BME280;2237;51.870;6.160;2022-08-21T17:11:26;101445.84;;;27.13;32.13
4449;BME280;2237;51.870;6.160;2022-08-21T17:14:17;101450.03;;;26.84;32.42
4449;BME280;2237;51.870;6.160;2022-08-21T17:16:51;101448.31;;;26.50;32.81
4449;BME280;2237;51.870;6.160;2022-08-21T17:19:18;101450.22;;;26.59;32.63
4449;BME280;2237;51.870;6.160;2022-08-21T17:21:45;101449.25;;;26.60;32.89
4449;BME280;2237;51.870;6.160;2022-08-21T17:24:12;101444.75;;;26.71;32.99
4449;BME280;2237;51.870;6.160;2022-08-21T17:26:41;101455.34;;;26.73;32.89
4449;BME280;2237;51.870;6.160;2022-08-21T17:29:09;101453.16;;;26.78;33.18
4449;BME280;2237;51.870;6.160;2022-08-21T17:31:40;101449.88;;;26.85;33.31
4449;BME280;2237;51.870;6.160;2022-08-21T17:34:08;101457.53;;;26.79;33.67
4449;BME280;2237;51.870;6.160;2022-08-21T17:36:35;101457.28;;;26.82;33.63
4449;BME280;2237;51.870;6.160;2022-08-21T17:39:02;101451.44;;;26.66;34.21
4449;BME280;2237;51.870;6.160;2022-08-21T17:41:29;101456.06;;;26.75;34.46
4449;BME280;2237;51.870;6.160;2022-08-21T17:43:56;101455.81;;;26.78;34.81
4449;BME280;2237;51.870;6.160;2022-08-21T17:46:28;101451.94;;;26.82;35.30
4449;BME280;2237;51.870;6.160;2022-08-21T17:48:56;101461.91;;;26.69;35.76
4449;BME280;2237;51.870;6.160;2022-08-21T17:51:23;101449.28;;;26.49;36.37
4449;BME280;2237;51.870;6.160;2022-08-21T17:53:49;101460.81;;;26.49;36.94
4449;BME280;2237;51.870;6.160;2022-08-21T17:56:17;101462.97;;;26.44;37.08
4449;BME280;2237;51.870;6.160;2022-08-21T17:58:47;101460.91;;;26.48;37.61
4449;BME280;2237;51.870;6.160;2022-08-21T18:01:14;101454.84;;;26.23;38.12
4449;BME280;2237;51.870;6.160;2022-08-21T18:03:41;101459.94;;;26.26;37.92
4449;BME280;2237;51.870;6.160;2022-08-21T18:06:08;101459.94;;;26.26;38.12
4449;BME280;2237;51.870;6.160;2022-08-21T18:08:40;101458.09;;;26.16;38.58
4449;BME280;2237;51.870;6.160;2022-08-21T18:11:07;101461.31;;;26.08;38.63
4449;BME280;2237;51.870;6.160;2022-08-21T18:13:43;101457.19;;;26.04;38.84
4449;BME280;2237;51.870;6.160;2022-08-21T18:16:09;101458.16;;;26.03;39.19
4449;BME280;2237;51.870;6.160;2022-08-21T18:18:45;101459.34;;;25.99;39.41
4449;BME280;2237;51.870;6.160;2022-08-21T18:21:14;101458.00;;;25.94;39.55
4449;BME280;2237;51.870;6.160;2022-08-21T18:23:40;101468.53;;;25.84;39.74
4449;BME280;2237;51.870;6.160;2022-08-21T18:26:12;101459.34;;;25.88;39.84
4449;BME280;2237;51.870;6.160;2022-08-21T18:28:40;101463.44;;;25.81;40.20
4449;BME280;2237;51.870;6.160;2022-08-21T18:31:08;101463.78;;;25.76;40.11
4449;BME280;2237;51.870;6.160;2022-08-21T18:33:37;101466.31;;;25.78;40.08
4449;BME280;2237;51.870;6.160;2022-08-21T18:36:06;101468.22;;;25.65;40.60
4449;BME280;2237;51.870;6.160;2022-08-21T18:38:36;101470.13;;;25.63;40.51
4449;BME280;2237;51.870;6.160;2022-08-21T18:41:03;101464.44;;;25.44;40.95
4449;BME280;2237;51.870;6.160;2022-08-21T18:43:36;101464.28;;;25.34;41.11
4449;BME280;2237;51.870;6.160;2022-08-21T18:46:03;101475.28;;;25.29;41.07
4449;BME280;2237;51.870;6.160;2022-08-21T18:48:30;101474.34;;;25.31;41.43
4449;BME280;2237;51.870;6.160;2022-08-21T18:50:58;101480.22;;;25.23;41.61
4449;BME280;2237;51.870;6.160;2022-08-21T18:53:24;101481.94;;;25.24;41.66
4449;BME280;2237;51.870;6.160;2022-08-21T18:55:54;101483.06;;;25.33;41.59
4449;BME280;2237;51.870;6.160;2022-08-21T18:58:43;101489.25;;;25.33;41.25
4449;BME280;2237;51.870;6.160;2022-08-21T19:01:09;101480.72;;;25.28;41.55
4449;BME280;2237;51.870;6.160;2022-08-21T19:03:37;101485.03;;;25.18;41.69
4449;BME280;2237;51.870;6.160;2022-08-21T19:06:03;101489.31;;;25.08;42.00
4449;BME280;2237;51.870;6.160;2022-08-21T19:08:35;101488.06;;;25.01;42.22
4449;BME280;2237;51.870;6.160;2022-08-21T19:11:03;101489.38;;;24.95;41.77
4449;BME280;2237;51.870;6.160;2022-08-21T19:13:32;101482.97;;;24.85;42.14
4449;BME280;2237;51.870;6.160;2022-08-21T19:16:00;101489.28;;;24.84;42.29
4449;BME280;2237;51.870;6.160;2022-08-21T19:18:31;101484.34;;;24.78;42.33
4449;BME280;2237;51.870;6.160;2022-08-21T19:21:00;101487.03;;;24.78;42.63
4449;BME280;2237;51.870;6.160;2022-08-21T19:23:28;101489.50;;;24.81;42.43
4449;BME280;2237;51.870;6.160;2022-08-21T19:25:57;101493.00;;;24.82;42.46
4449;BME280;2237;51.870;6.160;2022-08-21T19:28:49;101493.84;;;24.82;42.38
4449;BME280;2237;51.870;6.160;2022-08-21T19:31:19;101493.63;;;24.85;42.38
4449;BME280;2237;51.870;6.160;2022-08-21T19:33:52;101500.16;;;24.81;42.45
4449;BME280;2237;51.870;6.160;2022-08-21T19:36:26;101494.25;;;24.76;42.72
4449;BME280;2237;51.870;6.160;2022-08-21T19:38:53;101498.31;;;24.69;42.79
4449;BME280;2237;51.870;6.160;2022-08-21T19:41:24;101485.97;;;24.68;42.65
4449;BME280;2237;51.870;6.160;2022-08-21T19:43:54;101492.22;;;24.67;42.83
4449;BME280;2237;51.870;6.160;2022-08-21T19:46:27;101497.47;;;24.68;42.93
4449;BME280;2237;51.870;6.160;2022-08-21T19:48:54;101499.50;;;24.65;42.69
4449;BME280;2237;51.870;6.160;2022-08-21T19:51:23;101502.28;;;24.63;43.12
4449;BME280;2237;51.870;6.160;2022-08-21T19:53:58;101502.72;;;24.57;42.96
4449;BME280;2237;51.870;6.160;2022-08-21T19:56:36;101497.28;;;24.46;43.70
4449;BME280;2237;51.870;6.160;2022-08-21T19:59:03;101498.56;;;24.41;43.42
4449;BME280;2237;51.870;6.160;2022-08-21T20:01:34;101502.81;;;24.43;43.75
4449;BME280;2237;51.870;6.160;2022-08-21T20:04:05;101505.16;;;24.48;43.92
4449;BME280;2237;51.870;6.160;2022-08-21T20:06:44;101506.09;;;24.47;43.84
4449;BME280;2237;51.870;6.160;2022-08-21T20:09:12;101504.41;;;24.46;44.36
4449;BME280;2237;51.870;6.160;2022-08-21T20:11:46;101506.94;;;24.47;44.73
4449;BME280;2237;51.870;6.160;2022-08-21T20:14:16;101504.50;;;24.44;44.86
4449;BME280;2237;51.870;6.160;2022-08-21T20:16:45;101511.09;;;24.39;45.20
4449;BME280;2237;51.870;6.160;2022-08-21T20:19:13;101513.69;;;24.40;45.20
4449;BME280;2237;51.870;6.160;2022-08-21T20:21:40;101511.22;;;24.37;45.56
4449;BME280;2237;51.870;6.160;2022-08-21T20:24:10;101509.63;;;24.35;45.74
4449;BME280;2237;51.870;6.160;2022-08-21T20:26:42;101509.50;;;24.36;45.70
4449;BME280;2237;51.870;6.160;2022-08-21T20:29:30;101513.25;;;24.34;46.11
4449;BME280;2237;51.870;6.160;2022-08-21T20:32:06;101516.13;;;24.31;46.46
4449;BME280;2237;51.870;6.160;2022-08-21T20:34:38;101511.84;;;24.28;46.15
4449;BME280;2237;51.870;6.160;2022-08-21T20:37:04;101513.88;;;24.25;46.77
4449;BME280;2237;51.870;6.160;2022-08-21T20:39:31;101516.00;;;24.20;46.68
4449;BME280;2237;51.870;6.160;2022-08-21T20:41:58;101519.59;;;24.18;47.17
4449;BME280;2237;51.870;6.160;2022-08-21T20:44:28;101513.53;;;24.16;47.47
4449;BME280;2237;51.870;6.160;2022-08-21T20:46:57;101520.03;;;24.12;47.69
4449;BME280;2237;51.870;6.160;2022-08-21T20:49:28;101520.19;;;24.09;47.35
4449;BME280;2237;51.870;6.160;2022-08-21T20:51:57;101519.66;;;24.04;47.46
4449;BME280;2237;51.870;6.160;2022-08-21T20:54:50;101520.59;;;24.03;48.11
4449;BME280;2237;51.870;6.160;2022-08-21T20:57:25;101512.00;;;24.00;47.89
4449;BME280;2237;51.870;6.160;2022-08-21T21:00:03;101517.63;;;23.95;47.98
4449;BME280;2237;51.870;6.160;2022-08-21T21:05:02;101523.47;;;23.88;48.79
4449;BME280;2237;51.870;6.160;2022-08-21T21:07:39;101518.44;;;23.83;48.77
4449;BME280;2237;51.870;6.160;2022-08-21T21:10:11;101520.75;;;23.75;49.49
4449;BME280;2237;51.870;6.160;2022-08-21T21:12:43;101524.78;;;23.68;49.32
4449;BME280;2237;51.870;6.160;2022-08-21T21:15:25;101527.84;;;23.62;49.90